CheckWX is a tool to help pilots better visualize weather data.  It is not intended as a substitute for an official pre-flight weather briefing.

00:24:14 UTC

EPWA TAF
Warsaw Chopin Airport
Warsaw, Poland
TAF EPWA 252330Z 2600/2624 30005KT CAVOK PROB40 TEMPO 2602/2605 -SHRA BKN020TCU BECMG 2608/2611 30015KT TEMPO 2611/2618 30019G35KT -SHRA SCT020CB PROB40 TEMPO 2612/2617 3000 SHRASN BKN014CB BECMG 2622/2624 30005KT

Mar-26@
00:00 UTC

Mar-26 @ 00:00 UTC

Mar-26@
08:00 UTC

Mar-26 @ 08:00 UTC

TAF EPWA 252330Z 2600/2624 30005KT CAVOK
Wind
  • 300° at 5 KTS
Conditions
No significant weather
Cloud Levels
  • No significant clouds

Mar-26@
02:00 UTC

Mar-26 @ 02:00 UTC

Mar-26@
05:00 UTC

Mar-26 @ 05:00 UTC

PROB40 TEMPO 2602/2605 -SHRA BKN020TCU

Temporary - 40% Likelihood

Temporary - 40% Likelihood during this time.

Conditions
Light Rain
Cloud Levels
  • Broken at 2,000' AGL

Mar-26@
08:00 UTC

Mar-26 @ 08:00 UTC

Mar-26@
22:00 UTC

Mar-26 @ 22:00 UTC

BECMG 2608/2611 30015KT

Becoming

Becoming Conditions expected by Tue, Mar 26, 2019 @ 11:00 UTC

Wind
  • 300° at 15 KTS
Conditions
No significant weather
Cloud Levels
  • No significant clouds

Mar-26@
11:00 UTC

Mar-26 @ 11:00 UTC

Mar-26@
18:00 UTC

Mar-26 @ 18:00 UTC

TEMPO 2611/2618 30019G35KT -SHRA SCT020CB

Temporary

Temporary Changes expected for less than half the time period

Wind
  • 300° at 19 KTS
  • {Gusting to 35 KTS
Conditions
Light Rain
Cloud Levels
  • Scattered at 2,000' AGL

Mar-26@
12:00 UTC

Mar-26 @ 12:00 UTC

Mar-26@
17:00 UTC

Mar-26 @ 17:00 UTC

PROB40 TEMPO 2612/2617 3000 SHRASN BKN014CB

Temporary - 40% Likelihood

Temporary - 40% Likelihood during this time.

Conditions
Rain, Snow
Cloud Levels
  • Broken at 1,400' AGL

Mar-26@
22:00 UTC

Mar-26 @ 22:00 UTC

Mar-27@
00:00 UTC

Mar-27 @ 00:00 UTC

BECMG 2622/2624 30005KT

Becoming

Becoming Conditions expected by Wed, Mar 27, 2019 @ 00:00 UTC

Wind
  • 300° at 5 KTS
Conditions
No significant weather
Cloud Levels
  • No significant clouds